createdAt,value
2019-01-21T00:00:34.151Z,99.90
2019-01-21T00:02:09.279Z,99.90
2019-01-21T00:03:44.074Z,99.90
2019-01-21T00:05:19.128Z,99.90
2019-01-21T00:06:53.990Z,99.90
2019-01-21T00:08:29.223Z,99.90
2019-01-21T00:10:04.698Z,99.90
2019-01-21T00:11:39.584Z,99.90
2019-01-21T00:13:15.018Z,99.90
2019-01-21T00:14:50.148Z,99.90
2019-01-21T00:16:24.960Z,99.90
2019-01-21T00:18:00.247Z,99.90
2019-01-21T00:19:35.133Z,99.90
2019-01-21T00:21:09.933Z,99.90
2019-01-21T00:22:45.090Z,99.90
2019-01-21T00:24:21.559Z,99.90
2019-01-21T00:25:56.682Z,99.90
2019-01-21T00:27:31.765Z,99.90
2019-01-21T00:29:06.590Z,99.90
2019-01-21T00:30:41.947Z,99.90
2019-01-21T00:32:16.733Z,99.90
2019-01-21T00:33:51.811Z,99.90
2019-01-21T00:35:26.696Z,99.90
2019-01-21T00:37:03.443Z,99.90
2019-01-21T00:38:38.617Z,99.90
2019-01-21T00:40:14.199Z,99.90
2019-01-21T00:41:49.015Z,99.90
2019-01-21T00:43:24.103Z,99.90
2019-01-21T00:44:58.965Z,99.90
2019-01-21T00:46:34.089Z,99.90
2019-01-21T00:48:09.320Z,99.90
2019-01-21T00:49:44.471Z,99.90
2019-01-21T00:51:19.584Z,99.90
2019-01-21T00:52:54.384Z,99.90
2019-01-21T00:54:29.164Z,99.90
2019-01-21T00:56:04.062Z,99.90
2019-01-21T00:57:39.031Z,99.90
2019-01-21T00:59:13.846Z,99.90
2019-01-21T01:00:49.035Z,99.90
2019-01-21T01:02:23.935Z,99.90
2019-01-21T01:03:59.292Z,99.90
2019-01-21T01:05:34.178Z,99.90
2019-01-21T01:07:09.655Z,99.90
2019-01-21T01:08:44.445Z,99.90
2019-01-21T01:10:19.486Z,99.90
2019-01-21T01:11:54.284Z,99.90
2019-01-21T01:13:29.347Z,99.90
2019-01-21T01:15:05.011Z,99.90
2019-01-21T01:16:40.128Z,99.90
2019-01-21T01:18:14.925Z,99.90
2019-01-21T01:19:49.781Z,99.90
2019-01-21T01:21:24.912Z,99.90
2019-01-21T01:22:59.967Z,99.90
2019-01-21T01:24:34.779Z,99.90
2019-01-21T01:26:09.889Z,99.90
2019-01-21T01:27:44.865Z,99.90
2019-01-21T01:29:19.669Z,99.90
2019-01-21T01:30:54.715Z,99.90
2019-01-21T01:32:29.522Z,99.90
2019-01-21T01:34:04.827Z,99.90
2019-01-21T01:35:39.951Z,99.90
2019-01-21T01:37:14.771Z,99.90
2019-01-21T01:38:49.584Z,99.90
2019-01-21T01:40:24.468Z,99.90
2019-01-21T01:41:59.285Z,99.90
2019-01-21T01:43:34.710Z,99.90
2019-01-21T01:45:12.066Z,99.90
2019-01-21T01:46:47.403Z,99.90
2019-01-21T01:48:22.206Z,99.90
2019-01-21T01:49:57.011Z,99.90
2019-01-21T01:51:32.233Z,99.90
2019-01-21T01:53:07.193Z,99.90
2019-01-21T01:54:42.484Z,99.90
2019-01-21T01:56:17.675Z,99.90
2019-01-21T01:57:55.438Z,99.90
2019-01-21T01:59:30.235Z,99.90
2019-01-21T02:01:05.478Z,99.90
2019-01-21T02:02:40.580Z,99.90
2019-01-21T02:04:15.707Z,99.90
2019-01-21T02:05:50.635Z,99.90
2019-01-21T02:07:25.434Z,99.90
2019-01-21T02:09:00.337Z,99.90
2019-01-21T02:10:35.692Z,99.90
2019-01-21T02:12:10.920Z,99.90
2019-01-21T02:13:46.095Z,99.90
2019-01-21T02:15:21.146Z,99.90
2019-01-21T02:16:56.208Z,99.90
2019-01-21T02:18:31.007Z,99.90
2019-01-21T02:20:09.369Z,99.90
2019-01-21T02:21:44.998Z,99.90
2019-01-21T02:23:22.172Z,99.90
2019-01-21T02:25:01.042Z,99.90
2019-01-21T02:26:51.214Z,99.90
2019-01-21T02:28:56.314Z,99.90
2019-01-21T02:31:17.141Z,99.90
2019-01-21T02:33:41.720Z,99.90
2019-01-21T02:35:47.437Z,99.90
2019-01-21T02:37:46.871Z,99.90
2019-01-21T02:40:11.463Z,99.90
2019-01-21T02:42:34.131Z,99.90
2019-01-21T02:44:43.361Z,99.90
2019-01-21T02:46:44.388Z,99.90
2019-01-21T02:49:10.958Z,99.90
2019-01-21T02:51:24.220Z,99.90
2019-01-21T02:53:34.649Z,99.90
2019-01-21T02:55:32.323Z,99.90
2019-01-21T02:58:10.850Z,99.90
2019-01-21T03:00:36.011Z,99.90
2019-01-21T03:02:48.436Z,99.90
2019-01-21T03:05:19.071Z,99.90
2019-01-21T03:07:42.958Z,99.90
2019-01-21T03:09:55.150Z,99.90
2019-01-21T03:12:00.942Z,99.90
2019-01-21T03:14:10.789Z,99.90
2019-01-21T03:16:42.076Z,99.90
2019-01-21T03:19:01.128Z,99.90
2019-01-21T03:21:29.271Z,99.90
2019-01-21T03:23:46.681Z,99.90
2019-01-21T03:26:04.776Z,99.90
2019-01-21T03:28:54.894Z,99.90
2019-01-21T03:31:12.279Z,99.90
2019-01-21T03:33:37.128Z,99.90
2019-01-21T03:36:05.055Z,99.90
2019-01-21T03:38:34.901Z,99.90
2019-01-21T03:40:29.678Z,99.90
2019-01-21T03:42:25.124Z,99.90
2019-01-21T03:45:12.199Z,99.90
2019-01-21T03:47:32.228Z,99.90
2019-01-21T03:49:30.506Z,99.90
2019-01-21T03:52:17.379Z,99.90
2019-01-21T03:54:06.729Z,99.90
2019-01-21T03:55:42.115Z,99.90
2019-01-21T03:58:11.507Z,99.90
2019-01-21T04:00:43.553Z,99.90
2019-01-21T04:02:48.186Z,99.90
2019-01-21T04:05:12.666Z,99.90
2019-01-21T04:07:08.855Z,99.90
2019-01-21T04:09:39.995Z,99.90
2019-01-21T04:11:49.485Z,99.90
2019-01-21T04:14:23.361Z,99.90
2019-01-21T04:17:06.061Z,99.90
2019-01-21T04:19:31.053Z,99.90
2019-01-21T04:22:16.484Z,99.90
2019-01-21T04:24:53.963Z,99.90
2019-01-21T04:27:22.530Z,99.90
2019-01-21T04:29:45.579Z,99.90
2019-01-21T04:32:05.962Z,99.90
2019-01-21T04:34:41.345Z,99.90
2019-01-21T04:36:59.456Z,99.90
2019-01-21T04:39:07.534Z,99.90
2019-01-21T04:41:28.047Z,99.90
2019-01-21T04:44:17.192Z,99.90
2019-01-21T04:46:56.174Z,99.90
2019-01-21T04:49:14.566Z,99.90
2019-01-21T04:51:47.858Z,99.90
2019-01-21T04:53:59.801Z,99.90
2019-01-21T04:56:18.979Z,99.90
2019-01-21T04:58:48.480Z,99.90
2019-01-21T05:01:05.155Z,99.90
2019-01-21T05:03:41.841Z,99.90
2019-01-21T05:06:04.665Z,99.90
2019-01-21T05:08:37.551Z,99.90
2019-01-21T05:10:45.529Z,99.90
2019-01-21T05:13:12.623Z,99.90
2019-01-21T05:15:58.870Z,99.90
2019-01-21T05:18:48.449Z,99.90
2019-01-21T05:21:11.873Z,99.90
2019-01-21T05:23:34.354Z,99.90
2019-01-21T05:25:54.761Z,99.90
2019-01-21T05:28:47.398Z,99.90
2019-01-21T05:30:59.315Z,99.90
2019-01-21T05:33:31.342Z,99.90
2019-01-21T05:35:59.006Z,99.90
2019-01-21T05:38:36.489Z,99.90
2019-01-21T05:41:18.003Z,99.90
2019-01-21T05:43:54.116Z,99.90
2019-01-21T05:46:03.214Z,99.90
2019-01-21T05:48:48.896Z,99.90
2019-01-21T05:51:18.640Z,99.90
2019-01-21T05:53:38.030Z,99.90
2019-01-21T05:56:21.928Z,99.90
2019-01-21T05:58:36.433Z,99.90
2019-01-21T06:00:49.390Z,99.90
2019-01-21T06:03:41.184Z,99.90
2019-01-21T06:06:03.897Z,99.90
2019-01-21T06:09:00.319Z,99.90
2019-01-21T06:11:11.668Z,99.90
2019-01-21T06:13:32.757Z,99.90
2019-01-21T06:16:00.430Z,99.90
2019-01-21T06:18:34.630Z,99.90
2019-01-21T06:20:55.044Z,99.90
2019-01-21T06:23:46.126Z,99.90
2019-01-21T06:26:08.670Z,99.90
2019-01-21T06:28:28.452Z,99.90
2019-01-21T06:30:37.886Z,99.90
2019-01-21T06:33:02.373Z,99.90
2019-01-21T06:35:40.511Z,99.90
2019-01-21T06:37:58.076Z,99.90
2019-01-21T06:40:35.732Z,99.90
2019-01-21T06:43:21.514Z,99.90
2019-01-21T06:45:28.365Z,99.90
2019-01-21T06:47:43.359Z,99.90
2019-01-21T06:49:40.351Z,99.90
2019-01-21T06:51:54.365Z,99.90
2019-01-21T06:54:43.258Z,99.90
2019-01-21T06:57:07.905Z,99.90
2019-01-21T06:59:20.238Z,99.90
2019-01-21T07:01:45.585Z,99.90
2019-01-21T07:04:12.140Z,99.90
2019-01-21T07:06:42.150Z,99.90
2019-01-21T07:09:18.811Z,99.90
2019-01-21T07:11:47.672Z,99.90
2019-01-21T07:13:53.670Z,99.90
2019-01-21T07:15:57.781Z,99.90
2019-01-21T07:18:17.198Z,99.90
2019-01-21T07:20:32.518Z,99.90
2019-01-21T07:23:35.216Z,99.90
2019-01-21T07:26:09.693Z,99.90
2019-01-21T07:28:45.258Z,99.90
2019-01-21T07:31:22.547Z,99.90
2019-01-21T07:33:55.747Z,99.90
2019-01-21T07:36:12.978Z,99.90
2019-01-21T07:38:15.958Z,99.90
2019-01-21T07:40:50.596Z,99.90
2019-01-21T07:43:15.759Z,99.90
2019-01-21T07:45:34.081Z,99.90
2019-01-21T07:47:37.430Z,99.90
2019-01-21T07:50:00.097Z,99.90
2019-01-21T07:52:31.070Z,99.90
2019-01-21T07:54:43.206Z,99.90
2019-01-21T07:57:08.555Z,99.90
2019-01-21T07:59:24.361Z,99.90
2019-01-21T08:01:46.721Z,99.90
2019-01-21T08:04:36.678Z,99.90
2019-01-21T08:07:09.364Z,99.90
2019-01-21T08:09:29.390Z,99.90
2019-01-21T08:11:37.451Z,99.90
2019-01-21T08:13:46.679Z,99.90
2019-01-21T08:15:44.761Z,99.90
2019-01-21T08:18:14.280Z,99.90
2019-01-21T08:20:37.938Z,99.90
2019-01-21T08:23:08.273Z,99.90
2019-01-21T08:25:34.362Z,99.90
2019-01-21T08:28:03.469Z,99.90
2019-01-21T08:30:30.458Z,99.90
2019-01-21T08:32:38.999Z,99.90
2019-01-21T08:35:10.774Z,99.90
2019-01-21T08:37:19.094Z,99.90
2019-01-21T08:39:43.386Z,99.90
2019-01-21T08:41:49.187Z,99.90
2019-01-21T08:43:56.118Z,99.90
2019-01-21T08:46:26.527Z,99.90
2019-01-21T08:49:03.744Z,99.90
2019-01-21T08:53:37.839Z,99.90
2019-01-21T08:56:01.028Z,99.90
2019-01-21T08:58:27.783Z,99.90
2019-01-21T09:00:38.829Z,99.90
2019-01-21T09:03:02.781Z,99.90
2019-01-21T09:05:14.162Z,99.90
2019-01-21T09:07:20.017Z,99.90
2019-01-21T09:09:48.593Z,99.90
2019-01-21T09:11:57.615Z,99.90
2019-01-21T09:14:02.456Z,99.90
2019-01-21T09:16:08.303Z,99.90
2019-01-21T09:18:24.624Z,99.90
2019-01-21T09:20:59.125Z,99.90
2019-01-21T09:22:47.479Z,99.90
2019-01-21T09:25:20.374Z,99.90
2019-01-21T09:27:41.875Z,99.90
2019-01-21T09:30:14.593Z,99.90
2019-01-21T09:32:41.525Z,99.90
2019-01-21T09:35:17.263Z,99.90
2019-01-21T09:38:19.646Z,99.90
2019-01-21T09:40:51.661Z,99.90
2019-01-21T09:43:24.359Z,99.90
2019-01-21T09:45:48.662Z,99.90
2019-01-21T09:47:21.976Z,99.90
2019-01-21T09:48:55.211Z,99.90
2019-01-21T09:50:30.648Z,99.90
2019-01-21T09:52:14.181Z,99.90
2019-01-21T09:53:54.482Z,99.90
2019-01-21T09:55:30.275Z,99.90
2019-01-21T09:57:08.950Z,99.90
2019-01-21T09:58:45.318Z,99.90
2019-01-21T10:00:20.715Z,99.90
2019-01-21T10:01:58.836Z,99.90
2019-01-21T10:03:34.903Z,99.90
2019-01-21T10:05:13.971Z,99.90
2019-01-21T10:07:20.877Z,99.90
2019-01-21T10:09:48.190Z,99.90
2019-01-21T10:12:08.102Z,99.90
2019-01-21T10:14:29.593Z,99.90
2019-01-21T10:16:55.831Z,99.90
2019-01-21T10:19:36.362Z,99.90
2019-01-21T10:22:05.076Z,99.90
2019-01-21T10:24:23.033Z,99.90
2019-01-21T10:26:40.521Z,99.20
2019-01-21T10:29:21.614Z,98.10
2019-01-21T10:31:59.405Z,97.70
2019-01-21T10:33:59.703Z,96.50
2019-01-21T10:36:36.182Z,95.40
2019-01-21T10:39:06.459Z,94.30
2019-01-21T10:41:05.621Z,95.60
2019-01-21T10:43:05.350Z,97.10
2019-01-21T10:45:28.371Z,97.30
2019-01-21T10:47:36.683Z,94.60
2019-01-21T10:50:29.988Z,93.80
2019-01-21T10:53:13.226Z,94.00
2019-01-21T10:55:19.871Z,94.90
2019-01-21T10:57:33.360Z,93.60
2019-01-21T10:59:25.284Z,92.60
2019-01-21T11:02:20.971Z,90.90
2019-01-21T11:04:55.242Z,89.20
2019-01-21T11:07:21.544Z,84.30
2019-01-21T11:09:45.599Z,82.10
2019-01-21T11:12:06.533Z,86.10
2019-01-21T11:14:27.950Z,85.40
2019-01-21T11:16:29.485Z,83.40
2019-01-21T11:18:30.946Z,84.10
2019-01-21T11:20:52.180Z,83.70
2019-01-21T11:22:55.276Z,79.10
2019-01-21T11:24:59.967Z,77.80
2019-01-21T11:27:21.084Z,78.40
2019-01-21T11:29:59.593Z,76.10
2019-01-21T11:32:09.392Z,73.40
2019-01-21T11:34:30.134Z,70.80
2019-01-21T11:36:21.956Z,70.80
2019-01-21T11:38:26.482Z,65.90
2019-01-21T11:40:50.150Z,64.20
2019-01-21T11:42:43.107Z,64.60
2019-01-21T11:44:56.620Z,64.50
2019-01-21T11:47:12.301Z,63.40
2019-01-21T11:49:40.890Z,60.30
2019-01-21T11:52:36.514Z,59.40
2019-01-21T11:55:03.547Z,59.20
2019-01-21T11:57:23.743Z,59.20
2019-01-21T11:59:43.164Z,59.00
2019-01-21T12:02:14.115Z,58.20
2019-01-21T12:04:40.992Z,57.30
2019-01-21T12:06:44.806Z,55.20
2019-01-21T12:08:38.213Z,55.20
2019-01-21T12:10:51.789Z,55.40
2019-01-21T12:13:04.199Z,54.30
2019-01-21T12:15:14.107Z,55.20
2019-01-21T12:17:50.512Z,55.40
2019-01-21T12:20:17.012Z,55.70
2019-01-21T12:22:32.111Z,54.80
2019-01-21T12:24:53.951Z,55.90
2019-01-21T12:27:36.990Z,55.80
2019-01-21T12:30:11.293Z,56.20
2019-01-21T12:32:32.625Z,56.00
2019-01-21T12:34:57.112Z,55.00
2019-01-21T12:37:10.129Z,55.30
2019-01-21T12:39:11.946Z,54.80
2019-01-21T12:41:25.132Z,56.10
2019-01-21T12:43:47.692Z,56.50
2019-01-21T12:46:29.704Z,57.30
2019-01-21T12:48:19.786Z,57.90
2019-01-21T12:50:47.252Z,58.40
2019-01-21T12:52:36.029Z,57.80
2019-01-21T12:55:04.159Z,57.30
2019-01-21T12:57:50.832Z,57.30
2019-01-21T13:00:35.153Z,57.70
2019-01-21T13:03:05.762Z,57.30
2019-01-21T13:05:18.060Z,56.90
2019-01-21T13:07:48.614Z,57.00
2019-01-21T13:10:12.660Z,57.20
2019-01-21T13:12:12.920Z,57.40
2019-01-21T13:14:17.261Z,58.30
2019-01-21T13:17:18.985Z,59.80
2019-01-21T13:19:58.398Z,60.50
2019-01-21T13:21:57.857Z,61.70
2019-01-21T13:24:03.247Z,62.10
2019-01-21T13:26:26.172Z,63.50
2019-01-21T13:28:40.976Z,63.60
2019-01-21T13:31:01.120Z,64.40
2019-01-21T13:33:25.557Z,64.90
2019-01-21T13:35:46.438Z,65.60
2019-01-21T13:38:08.458Z,65.90
2019-01-21T13:40:35.650Z,65.30
2019-01-21T13:42:40.776Z,64.70
2019-01-21T13:44:47.561Z,65.20
2019-01-21T13:47:33.113Z,65.90
2019-01-21T13:49:27.124Z,65.20
2019-01-21T13:51:41.348Z,66.50
2019-01-21T13:54:23.837Z,68.30
2019-01-21T13:56:31.545Z,68.00
2019-01-21T13:58:39.035Z,68.00
2019-01-21T14:00:46.035Z,68.70
2019-01-21T14:02:36.285Z,68.80
2019-01-21T14:05:12.225Z,69.20
2019-01-21T14:07:17.260Z,68.70
2019-01-21T14:09:40.311Z,69.30
2019-01-21T14:12:10.531Z,69.50
2019-01-21T14:14:14.538Z,69.90
2019-01-21T14:16:34.898Z,69.30
2019-01-21T14:18:48.966Z,68.90
2019-01-21T14:21:11.826Z,68.80
2019-01-21T14:23:15.878Z,69.50
2019-01-21T14:25:36.558Z,71.00
2019-01-21T14:27:57.019Z,73.20
2019-01-21T14:29:50.273Z,76.20
2019-01-21T14:32:41.282Z,79.10
2019-01-21T14:35:00.455Z,81.40
2019-01-21T14:37:29.634Z,84.20
2019-01-21T14:39:53.225Z,87.30
2019-01-21T14:42:15.757Z,89.00
2019-01-21T14:45:23.993Z,90.40
2019-01-21T14:47:47.432Z,90.80
2019-01-21T14:49:33.345Z,91.40
2019-01-21T14:52:18.490Z,92.40
2019-01-21T14:54:23.598Z,92.90
2019-01-21T14:56:29.584Z,93.30
2019-01-21T14:59:10.586Z,93.60
2019-01-21T15:01:23.820Z,93.70
2019-01-21T15:03:32.270Z,94.50
2019-01-21T15:06:08.574Z,94.70
2019-01-21T15:08:04.829Z,94.80
2019-01-21T15:10:36.543Z,94.90
2019-01-21T15:13:04.360Z,95.20
2019-01-21T15:15:16.033Z,95.30
2019-01-21T15:18:06.020Z,95.80
2019-01-21T15:20:57.833Z,96.00
2019-01-21T15:23:11.402Z,96.30
2019-01-21T15:25:32.802Z,97.00
2019-01-21T15:27:43.792Z,97.10
2019-01-21T15:30:05.737Z,97.00
2019-01-21T15:32:27.339Z,97.10
2019-01-21T15:34:36.691Z,97.30
2019-01-21T15:36:23.506Z,97.30
2019-01-21T15:38:44.510Z,97.70
2019-01-21T15:41:01.302Z,98.20
2019-01-21T15:43:08.426Z,98.30
2019-01-21T15:45:40.741Z,98.30
2019-01-21T15:47:45.262Z,98.30
2019-01-21T15:50:09.823Z,98.40
2019-01-21T15:52:41.344Z,98.90
2019-01-21T15:54:54.348Z,99.30
2019-01-21T15:57:32.767Z,99.20
2019-01-21T15:59:48.020Z,99.20
2019-01-21T16:02:35.248Z,99.30
2019-01-21T16:04:57.862Z,99.40
2019-01-21T16:07:23.823Z,99.40
2019-01-21T16:09:45.451Z,99.60
2019-01-21T16:11:57.890Z,99.70
2019-01-21T16:14:11.379Z,99.70
2019-01-21T16:16:19.375Z,99.90
2019-01-21T16:18:19.590Z,99.90
2019-01-21T16:20:28.106Z,99.90
2019-01-21T16:22:42.017Z,99.90
2019-01-21T16:25:11.446Z,99.90
2019-01-21T16:27:02.454Z,99.90
2019-01-21T16:29:01.445Z,99.90
2019-01-21T16:30:49.781Z,99.90
2019-01-21T16:32:47.700Z,99.90
2019-01-21T16:35:08.968Z,99.90
2019-01-21T16:39:00.078Z,99.90
2019-01-21T16:41:47.349Z,99.90
2019-01-21T16:43:22.531Z,99.90
2019-01-21T16:44:57.964Z,99.90
2019-01-21T16:46:32.843Z,99.90
2019-01-21T16:48:07.720Z,99.90
2019-01-21T16:49:42.946Z,99.90
2019-01-21T16:51:20.451Z,99.90
2019-01-21T16:52:54.971Z,99.90
2019-01-21T16:54:30.085Z,99.90
2019-01-21T16:56:05.150Z,99.90
2019-01-21T16:57:40.090Z,99.90
2019-01-21T16:59:14.972Z,99.90
2019-01-21T17:00:49.780Z,99.90
2019-01-21T17:02:24.916Z,99.90
2019-01-21T17:04:00.045Z,99.90
2019-01-21T17:05:35.480Z,99.90
2019-01-21T17:07:10.471Z,99.90
2019-01-21T17:08:45.532Z,99.90
2019-01-21T17:10:20.326Z,99.90
2019-01-21T17:11:55.743Z,99.90
2019-01-21T17:13:30.608Z,99.90
2019-01-21T17:15:07.812Z,99.90
2019-01-21T17:16:42.692Z,99.90
2019-01-21T17:18:17.836Z,99.90
2019-01-21T17:19:52.989Z,99.90
2019-01-21T17:21:28.427Z,99.90
2019-01-21T17:23:03.659Z,99.90
2019-01-21T17:24:38.728Z,99.90
2019-01-21T17:26:13.658Z,99.90
2019-01-21T17:27:48.740Z,99.90
2019-01-21T17:29:23.791Z,99.90
2019-01-21T17:30:58.938Z,99.90
2019-01-21T17:32:34.133Z,99.90
2019-01-21T17:34:09.360Z,99.90
2019-01-21T17:35:44.494Z,99.90
2019-01-21T17:37:19.621Z,99.90
2019-01-21T17:38:54.497Z,99.90
2019-01-21T17:40:29.683Z,99.90
2019-01-21T17:42:04.604Z,99.90
2019-01-21T17:43:39.391Z,99.90
2019-01-21T17:45:18.683Z,99.90
2019-01-21T17:46:53.988Z,99.90
2019-01-21T17:48:28.918Z,99.90
2019-01-21T17:50:05.001Z,99.90
2019-01-21T17:51:40.139Z,99.90
2019-01-21T17:53:14.947Z,99.90
2019-01-21T17:54:50.154Z,99.90
2019-01-21T17:56:25.281Z,99.90
2019-01-21T17:58:00.411Z,99.90
2019-01-21T17:59:35.244Z,99.90
2019-01-21T18:01:11.304Z,99.90
2019-01-21T18:02:46.095Z,99.90
2019-01-21T18:04:20.911Z,99.90
2019-01-21T18:05:57.035Z,99.90
2019-01-21T18:07:31.968Z,99.90
2019-01-21T18:09:10.129Z,99.90
2019-01-21T18:10:45.232Z,99.90
2019-01-21T18:12:20.043Z,99.90
2019-01-21T18:13:55.196Z,99.90
2019-01-21T18:15:30.328Z,99.90
2019-01-21T18:17:05.562Z,99.90
2019-01-21T18:18:40.346Z,99.90
2019-01-21T18:20:22.152Z,99.90
2019-01-21T18:21:57.301Z,99.90
2019-01-21T18:23:32.442Z,99.90
2019-01-21T18:25:09.104Z,99.90
2019-01-21T18:26:44.288Z,99.90
2019-01-21T18:28:19.462Z,99.90
2019-01-21T18:29:54.262Z,99.90
2019-01-21T18:31:29.442Z,99.90
2019-01-21T18:33:04.757Z,99.90
2019-01-21T18:34:39.571Z,99.90
2019-01-21T18:36:15.520Z,99.90
2019-01-21T18:37:50.856Z,99.90
2019-01-21T18:39:25.988Z,99.90
2019-01-21T18:41:00.772Z,99.90
2019-01-21T18:42:35.629Z,99.90
2019-01-21T18:44:10.593Z,99.90
2019-01-21T18:45:46.511Z,99.90
2019-01-21T18:47:21.656Z,99.90
2019-01-21T18:48:56.537Z,99.90
2019-01-21T18:50:31.703Z,99.90
2019-01-21T18:52:07.049Z,99.90
2019-01-21T18:53:41.832Z,99.90
2019-01-21T18:55:16.836Z,99.90
2019-01-21T18:56:51.625Z,99.90
2019-01-21T18:58:26.434Z,99.90
2019-01-21T19:00:01.299Z,99.90
2019-01-21T19:01:36.483Z,99.90
2019-01-21T19:03:11.642Z,99.90
2019-01-21T19:04:46.699Z,99.90
2019-01-21T19:06:21.882Z,99.90
2019-01-21T19:07:56.662Z,99.90
2019-01-21T19:09:31.693Z,99.90
2019-01-21T19:11:06.860Z,99.90
2019-01-21T19:12:41.964Z,99.90
2019-01-21T19:14:17.118Z,99.90
2019-01-21T19:15:51.995Z,99.90
2019-01-21T19:17:26.819Z,99.90
2019-01-21T19:19:02.131Z,99.90
2019-01-21T19:20:37.227Z,99.90
2019-01-21T19:22:12.092Z,99.90
2019-01-21T19:23:46.992Z,99.90
2019-01-21T19:25:22.198Z,99.90
2019-01-21T19:26:57.342Z,99.90
2019-01-21T19:28:32.149Z,99.90
2019-01-21T19:30:11.683Z,99.90
2019-01-21T19:31:46.824Z,99.90
2019-01-21T19:33:21.622Z,99.90
2019-01-21T19:34:56.415Z,99.90
2019-01-21T19:36:31.334Z,99.90
2019-01-21T19:38:06.531Z,99.90
2019-01-21T19:39:41.661Z,99.90
2019-01-21T19:41:16.578Z,99.90
2019-01-21T19:42:51.822Z,99.90
2019-01-21T19:44:26.622Z,99.90
2019-01-21T19:46:01.408Z,99.90
2019-01-21T19:47:36.491Z,99.90
2019-01-21T19:49:11.651Z,99.90
2019-01-21T19:50:46.434Z,99.90
2019-01-21T19:52:21.636Z,99.90
2019-01-21T19:53:56.437Z,99.90
2019-01-21T19:55:36.460Z,99.90
2019-01-21T19:57:11.260Z,99.90
2019-01-21T19:58:46.402Z,99.90
2019-01-21T20:00:22.254Z,99.90
2019-01-21T20:01:57.374Z,99.90
2019-01-21T20:03:32.499Z,99.90
2019-01-21T20:05:08.800Z,99.90
2019-01-21T20:06:44.036Z,99.90
2019-01-21T20:08:19.119Z,99.90
2019-01-21T20:09:54.255Z,99.90
2019-01-21T20:11:34.707Z,99.90
2019-01-21T20:13:06.084Z,99.90
2019-01-21T20:14:40.960Z,99.90
2019-01-21T20:16:15.765Z,99.90
2019-01-21T20:17:51.144Z,99.90
2019-01-21T20:19:26.237Z,99.90
2019-01-21T20:21:01.398Z,99.90
2019-01-21T20:22:36.530Z,99.90
2019-01-21T20:24:11.665Z,99.90
2019-01-21T20:25:46.447Z,99.90
2019-01-21T20:27:21.592Z,99.90
2019-01-21T20:28:56.751Z,99.90
2019-01-21T20:30:31.869Z,99.90
2019-01-21T20:32:08.288Z,99.90
2019-01-21T20:33:43.570Z,99.90
2019-01-21T20:35:18.599Z,99.90
2019-01-21T20:36:53.727Z,99.90
2019-01-21T20:38:28.551Z,99.90
2019-01-21T20:40:05.008Z,99.90
2019-01-21T20:41:40.157Z,99.90
2019-01-21T20:43:15.408Z,99.90
2019-01-21T20:44:50.213Z,99.90
2019-01-21T20:46:25.319Z,99.90
2019-01-21T20:48:00.107Z,99.90
2019-01-21T20:49:34.923Z,99.90
2019-01-21T20:51:10.102Z,99.90
2019-01-21T20:52:45.226Z,99.90
2019-01-21T20:54:20.034Z,99.90
2019-01-21T20:55:54.854Z,99.90
2019-01-21T20:57:30.033Z,99.90
2019-01-21T20:59:05.091Z,99.90
2019-01-21T21:00:39.868Z,99.90
2019-01-21T21:02:14.944Z,99.90
2019-01-21T21:03:50.715Z,99.90
2019-01-21T21:05:26.252Z,99.90
2019-01-21T21:07:02.016Z,99.90
2019-01-21T21:08:37.774Z,99.90
2019-01-21T21:10:13.744Z,99.90
2019-01-21T21:11:49.544Z,99.90
2019-01-21T21:13:25.053Z,99.90
2019-01-21T21:15:00.553Z,99.90
2019-01-21T21:16:36.291Z,99.90
2019-01-21T21:18:11.754Z,99.90
2019-01-21T21:19:47.596Z,99.90
2019-01-21T21:21:23.035Z,99.90
2019-01-21T21:22:58.522Z,99.90
2019-01-21T21:24:33.981Z,99.90
2019-01-21T21:26:10.139Z,99.90
2019-01-21T21:27:45.576Z,99.90
2019-01-21T21:29:21.731Z,99.90
2019-01-21T21:30:57.181Z,99.90
2019-01-21T21:32:32.658Z,99.90
2019-01-21T21:34:08.128Z,99.90
2019-01-21T21:35:43.690Z,99.90
2019-01-21T21:37:19.165Z,99.90
2019-01-21T21:38:54.985Z,99.90
2019-01-21T21:40:30.503Z,99.90
2019-01-21T21:42:07.236Z,99.90
2019-01-21T21:43:42.682Z,99.90
2019-01-21T21:45:19.518Z,99.90
2019-01-21T21:46:55.002Z,99.90
2019-01-21T21:48:31.991Z,99.90
2019-01-21T21:50:12.078Z,99.90
2019-01-21T21:51:47.523Z,99.90
2019-01-21T21:53:23.010Z,99.90
2019-01-21T21:54:58.976Z,99.90
2019-01-21T21:56:34.713Z,99.90
2019-01-21T21:58:10.603Z,99.90
2019-01-21T21:59:46.383Z,99.90
2019-01-21T22:01:23.978Z,99.90
2019-01-21T22:02:59.635Z,99.90
2019-01-21T22:04:35.387Z,99.90
2019-01-21T22:06:11.124Z,99.90
2019-01-21T22:07:46.891Z,99.90
2019-01-21T22:09:22.720Z,99.90
2019-01-21T22:10:58.203Z,99.90
2019-01-21T22:12:34.035Z,99.90
2019-01-21T22:14:09.851Z,99.90
2019-01-21T22:15:45.651Z,99.90
2019-01-21T22:17:21.120Z,99.90
2019-01-21T22:18:56.989Z,99.90
2019-01-21T22:20:32.732Z,99.90
2019-01-21T22:22:08.587Z,99.90
2019-01-21T22:23:44.298Z,99.90
2019-01-21T22:25:19.863Z,99.90
2019-01-21T22:26:54.694Z,99.90
2019-01-21T22:28:29.811Z,99.90
2019-01-21T22:30:07.462Z,99.90
2019-01-21T22:31:42.257Z,99.90
2019-01-21T22:33:17.152Z,99.90
2019-01-21T22:34:51.951Z,99.90
2019-01-21T22:36:27.040Z,99.90
2019-01-21T22:38:02.543Z,99.90
2019-01-21T22:39:37.682Z,99.90
2019-01-21T22:41:12.478Z,99.90
2019-01-21T22:42:47.448Z,99.90
2019-01-21T22:44:22.490Z,99.90
2019-01-21T22:45:57.923Z,99.90
2019-01-21T22:47:33.502Z,99.90
2019-01-21T22:49:08.307Z,99.90
2019-01-21T22:50:44.523Z,99.90
2019-01-21T22:52:22.042Z,99.90
2019-01-21T22:53:57.439Z,99.90
2019-01-21T22:55:35.634Z,99.90
2019-01-21T22:57:10.973Z,99.90
2019-01-21T22:58:46.920Z,99.90
2019-01-21T23:00:54.521Z,99.90
2019-01-21T23:02:30.877Z,99.90
2019-01-21T23:04:07.949Z,99.90
2019-01-21T23:05:42.823Z,99.90
2019-01-21T23:07:18.361Z,99.90
2019-01-21T23:08:53.563Z,99.90
2019-01-21T23:10:28.674Z,99.90
2019-01-21T23:12:03.845Z,99.90
2019-01-21T23:13:39.356Z,99.90
2019-01-21T23:15:15.087Z,99.90
2019-01-21T23:16:50.728Z,99.90
2019-01-21T23:18:26.285Z,99.90
2019-01-21T23:20:01.400Z,99.90
2019-01-21T23:21:36.595Z,99.90
2019-01-21T23:23:12.055Z,99.90
2019-01-21T23:24:46.860Z,99.90
2019-01-21T23:26:22.432Z,99.90
2019-01-21T23:27:57.410Z,99.90
2019-01-21T23:29:32.209Z,99.90
2019-01-21T23:31:07.317Z,99.90
2019-01-21T23:32:42.448Z,99.90
2019-01-21T23:34:17.570Z,99.90
2019-01-21T23:35:53.011Z,99.90
2019-01-21T23:37:28.206Z,99.90
2019-01-21T23:39:04.661Z,99.90
2019-01-21T23:40:39.520Z,99.90
2019-01-21T23:42:14.537Z,99.90
2019-01-21T23:43:50.060Z,99.90
2019-01-21T23:45:25.427Z,99.90
2019-01-21T23:47:00.579Z,99.90
2019-01-21T23:48:35.950Z,99.90
2019-01-21T23:50:11.678Z,99.90
2019-01-21T23:51:47.012Z,99.90
2019-01-21T23:53:21.829Z,99.90
2019-01-21T23:54:56.628Z,99.90
2019-01-21T23:56:31.720Z,99.90
2019-01-21T23:58:06.585Z,99.90
2019-01-21T23:59:42.423Z,99.90
